sensor_id;sensor_type;location;lat;lon;timestamp;P1;durP1;ratioP1;P2;durP2;ratioP2
25824;SDS011;13658;44.534;18.694;2022-08-11T00:01:48;13.60;;;8.20;;
25824;SDS011;13658;44.534;18.694;2022-08-11T00:04:20;11.25;;;8.43;;
25824;SDS011;13658;44.534;18.694;2022-08-11T00:06:50;12.52;;;8.38;;
25824;SDS011;13658;44.534;18.694;2022-08-11T00:09:20;10.15;;;7.43;;
25824;SDS011;13658;44.534;18.694;2022-08-11T00:11:55;10.98;;;7.40;;
25824;SDS011;13658;44.534;18.694;2022-08-11T00:14:24;10.98;;;7.10;;
25824;SDS011;13658;44.534;18.694;2022-08-11T00:16:53;12.35;;;8.23;;
25824;SDS011;13658;44.534;18.694;2022-08-11T00:19:22;10.35;;;8.10;;
25824;SDS011;13658;44.534;18.694;2022-08-11T00:21:50;9.55;;;7.63;;
25824;SDS011;13658;44.534;18.694;2022-08-11T00:24:17;8.45;;;7.57;;
25824;SDS011;13658;44.534;18.694;2022-08-11T00:26:49;9.18;;;7.43;;
25824;SDS011;13658;44.534;18.694;2022-08-11T00:29:16;11.20;;;7.63;;
25824;SDS011;13658;44.534;18.694;2022-08-11T00:31:48;15.63;;;8.10;;
25824;SDS011;13658;44.534;18.694;2022-08-11T00:34:20;14.68;;;7.75;;
25824;SDS011;13658;44.534;18.694;2022-08-11T00:36:52;10.93;;;7.45;;
25824;SDS011;13658;44.534;18.694;2022-08-11T00:39:33;12.88;;;7.53;;
25824;SDS011;13658;44.534;18.694;2022-08-11T00:47:58;12.27;;;8.02;;
25824;SDS011;13658;44.534;18.694;2022-08-11T01:08:04;19.17;;;10.60;;
25824;SDS011;13658;44.534;18.694;2022-08-11T01:11:11;19.98;;;10.52;;
25824;SDS011;13658;44.534;18.694;2022-08-11T01:22:07;32.25;;;12.57;;
25824;SDS011;13658;44.534;18.694;2022-08-11T01:30:35;32.03;;;14.32;;
25824;SDS011;13658;44.534;18.694;2022-08-11T01:38:54;36.17;;;16.02;;
25824;SDS011;13658;44.534;18.694;2022-08-11T01:47:31;23.40;;;12.30;;
25824;SDS011;13658;44.534;18.694;2022-08-11T01:50:25;19.70;;;12.23;;
25824;SDS011;13658;44.534;18.694;2022-08-11T02:05:10;17.80;;;10.60;;
25824;SDS011;13658;44.534;18.694;2022-08-11T02:45:44;13.57;;;9.40;;
25824;SDS011;13658;44.534;18.694;2022-08-11T02:51:35;12.68;;;9.40;;
25824;SDS011;13658;44.534;18.694;2022-08-11T02:59:42;13.50;;;10.07;;
25824;SDS011;13658;44.534;18.694;2022-08-11T03:02:20;12.85;;;9.02;;
25824;SDS011;13658;44.534;18.694;2022-08-11T03:08:03;14.65;;;8.90;;
25824;SDS011;13658;44.534;18.694;2022-08-11T03:11:13;12.13;;;8.25;;
25824;SDS011;13658;44.534;18.694;2022-08-11T03:14:30;11.80;;;8.38;;
25824;SDS011;13658;44.534;18.694;2022-08-11T03:23:10;11.25;;;7.38;;
25824;SDS011;13658;44.534;18.694;2022-08-11T03:25:50;9.75;;;7.15;;
25824;SDS011;13658;44.534;18.694;2022-08-11T03:31:19;10.05;;;7.40;;
25824;SDS011;13658;44.534;18.694;2022-08-11T03:34:08;12.48;;;7.53;;
25824;SDS011;13658;44.534;18.694;2022-08-11T03:39:19;14.60;;;8.43;;
25824;SDS011;13658;44.534;18.694;2022-08-11T03:55:26;22.70;;;10.95;;
25824;SDS011;13658;44.534;18.694;2022-08-11T04:00:53;24.30;;;10.80;;
25824;SDS011;13658;44.534;18.694;2022-08-11T04:06:17;21.55;;;11.10;;
25824;SDS011;13658;44.534;18.694;2022-08-11T04:15:12;29.48;;;12.70;;
25824;SDS011;13658;44.534;18.694;2022-08-11T04:52:51;30.08;;;13.38;;
25824;SDS011;13658;44.534;18.694;2022-08-11T04:56:00;25.70;;;13.48;;
25824;SDS011;13658;44.534;18.694;2022-08-11T04:59:00;26.58;;;13.10;;
25824;SDS011;13658;44.534;18.694;2022-08-11T05:13:47;28.25;;;13.65;;
25824;SDS011;13658;44.534;18.694;2022-08-11T05:16:41;25.17;;;13.48;;
25824;SDS011;13658;44.534;18.694;2022-08-11T05:19:28;31.38;;;14.80;;
25824;SDS011;13658;44.534;18.694;2022-08-11T05:22:12;35.53;;;15.32;;
25824;SDS011;13658;44.534;18.694;2022-08-11T05:30:46;37.55;;;15.73;;
25824;SDS011;13658;44.534;18.694;2022-08-11T05:33:34;41.97;;;17.38;;
25824;SDS011;13658;44.534;18.694;2022-08-11T05:36:32;43.88;;;19.40;;
25824;SDS011;13658;44.534;18.694;2022-08-11T05:39:14;51.78;;;24.48;;
25824;SDS011;13658;44.534;18.694;2022-08-11T05:42:03;46.55;;;20.55;;
25824;SDS011;13658;44.534;18.694;2022-08-11T05:44:50;41.78;;;21.15;;
25824;SDS011;13658;44.534;18.694;2022-08-11T05:47:40;46.78;;;21.55;;
25824;SDS011;13658;44.534;18.694;2022-08-11T05:50:25;47.73;;;22.30;;
25824;SDS011;13658;44.534;18.694;2022-08-11T05:53:11;49.40;;;23.02;;
25824;SDS011;13658;44.534;18.694;2022-08-11T05:55:57;45.15;;;22.38;;
25824;SDS011;13658;44.534;18.694;2022-08-11T05:58:45;45.25;;;23.20;;
25824;SDS011;13658;44.534;18.694;2022-08-11T06:01:24;40.78;;;22.30;;
25824;SDS011;13658;44.534;18.694;2022-08-11T06:03:53;55.55;;;27.58;;
25824;SDS011;13658;44.534;18.694;2022-08-11T06:10:05;55.53;;;28.00;;
25824;SDS011;13658;44.534;18.694;2022-08-11T06:12:17;53.72;;;28.55;;
25824;SDS011;13658;44.534;18.694;2022-08-11T06:14:48;59.78;;;30.30;;
25824;SDS011;13658;44.534;18.694;2022-08-11T06:17:21;60.85;;;31.10;;
25824;SDS011;13658;44.534;18.694;2022-08-11T06:20:07;57.75;;;31.60;;
25824;SDS011;13658;44.534;18.694;2022-08-11T06:22:37;57.03;;;30.33;;
25824;SDS011;13658;44.534;18.694;2022-08-11T06:25:07;58.95;;;31.00;;
25824;SDS011;13658;44.534;18.694;2022-08-11T06:27:36;65.18;;;33.20;;
25824;SDS011;13658;44.534;18.694;2022-08-11T06:30:05;59.35;;;32.53;;
25824;SDS011;13658;44.534;18.694;2022-08-11T06:32:38;65.22;;;32.33;;
25824;SDS011;13658;44.534;18.694;2022-08-11T06:44:22;61.40;;;34.08;;
25824;SDS011;13658;44.534;18.694;2022-08-11T06:46:38;66.78;;;33.63;;
25824;SDS011;13658;44.534;18.694;2022-08-11T06:49:06;67.00;;;33.03;;
25824;SDS011;13658;44.534;18.694;2022-08-11T06:51:51;65.18;;;33.38;;
25824;SDS011;13658;44.534;18.694;2022-08-11T06:54:29;74.45;;;36.90;;
25824;SDS011;13658;44.534;18.694;2022-08-11T06:56:58;76.78;;;37.83;;
25824;SDS011;13658;44.534;18.694;2022-08-11T06:59:44;74.38;;;37.63;;
25824;SDS011;13658;44.534;18.694;2022-08-11T07:02:31;66.93;;;37.00;;
25824;SDS011;13658;44.534;18.694;2022-08-11T07:05:03;66.45;;;33.45;;
25824;SDS011;13658;44.534;18.694;2022-08-11T07:13:34;68.43;;;34.88;;
25824;SDS011;13658;44.534;18.694;2022-08-11T07:16:28;73.78;;;34.63;;
25824;SDS011;13658;44.534;18.694;2022-08-11T07:19:02;66.05;;;33.25;;
25824;SDS011;13658;44.534;18.694;2022-08-11T07:21:49;68.38;;;33.92;;
25824;SDS011;13658;44.534;18.694;2022-08-11T07:24:43;73.25;;;35.85;;
25824;SDS011;13658;44.534;18.694;2022-08-11T07:27:37;80.05;;;38.60;;
25824;SDS011;13658;44.534;18.694;2022-08-11T07:30:26;74.30;;;35.08;;
25824;SDS011;13658;44.534;18.694;2022-08-11T07:32:55;72.22;;;33.97;;
25824;SDS011;13658;44.534;18.694;2022-08-11T07:35:30;68.00;;;34.55;;
25824;SDS011;13658;44.534;18.694;2022-08-11T07:38:03;67.68;;;31.83;;
25824;SDS011;13658;44.534;18.694;2022-08-11T07:40:31;59.85;;;32.63;;
25824;SDS011;13658;44.534;18.694;2022-08-11T07:42:59;55.70;;;28.88;;
25824;SDS011;13658;44.534;18.694;2022-08-11T07:45:27;56.35;;;26.80;;
25824;SDS011;13658;44.534;18.694;2022-08-11T07:48:13;48.70;;;28.02;;
25824;SDS011;13658;44.534;18.694;2022-08-11T07:50:59;50.72;;;24.60;;
25824;SDS011;13658;44.534;18.694;2022-08-11T07:53:45;49.28;;;27.27;;
25824;SDS011;13658;44.534;18.694;2022-08-11T07:56:12;48.88;;;25.13;;
25824;SDS011;13658;44.534;18.694;2022-08-11T07:58:40;51.00;;;29.23;;
25824;SDS011;13658;44.534;18.694;2022-08-11T08:01:26;49.22;;;25.70;;
25824;SDS011;13658;44.534;18.694;2022-08-11T08:04:13;51.67;;;27.67;;
25824;SDS011;13658;44.534;18.694;2022-08-11T08:06:59;51.00;;;24.95;;
25824;SDS011;13658;44.534;18.694;2022-08-11T08:09:46;45.47;;;25.63;;
25824;SDS011;13658;44.534;18.694;2022-08-11T08:12:32;41.67;;;23.55;;
25824;SDS011;13658;44.534;18.694;2022-08-11T08:15:17;39.85;;;24.20;;
25824;SDS011;13658;44.534;18.694;2022-08-11T08:18:04;37.85;;;21.75;;
25824;SDS011;13658;44.534;18.694;2022-08-11T08:20:34;32.63;;;21.25;;
25824;SDS011;13658;44.534;18.694;2022-08-11T08:23:01;44.30;;;29.02;;
25824;SDS011;13658;44.534;18.694;2022-08-11T08:25:29;38.17;;;19.67;;
25824;SDS011;13658;44.534;18.694;2022-08-11T08:27:58;33.97;;;20.60;;
25824;SDS011;13658;44.534;18.694;2022-08-11T08:30:25;30.77;;;19.08;;
25824;SDS011;13658;44.534;18.694;2022-08-11T08:35:57;33.47;;;22.25;;
25824;SDS011;13658;44.534;18.694;2022-08-11T08:41:27;33.95;;;19.35;;
25824;SDS011;13658;44.534;18.694;2022-08-11T08:44:00;28.40;;;18.27;;
25824;SDS011;13658;44.534;18.694;2022-08-11T08:46:33;27.13;;;17.10;;
25824;SDS011;13658;44.534;18.694;2022-08-11T08:49:02;24.63;;;15.70;;
25824;SDS011;13658;44.534;18.694;2022-08-11T08:51:30;23.33;;;16.02;;
25824;SDS011;13658;44.534;18.694;2022-08-11T08:54:04;25.80;;;15.80;;
25824;SDS011;13658;44.534;18.694;2022-08-11T08:56:33;24.10;;;15.07;;
25824;SDS011;13658;44.534;18.694;2022-08-11T08:59:03;27.52;;;16.73;;
25824;SDS011;13658;44.534;18.694;2022-08-11T09:01:34;26.42;;;16.35;;
25824;SDS011;13658;44.534;18.694;2022-08-11T09:04:08;23.08;;;15.18;;
25824;SDS011;13658;44.534;18.694;2022-08-11T09:06:38;21.77;;;14.13;;
25824;SDS011;13658;44.534;18.694;2022-08-11T09:09:05;23.95;;;15.95;;
25824;SDS011;13658;44.534;18.694;2022-08-11T09:11:36;22.00;;;13.00;;
25824;SDS011;13658;44.534;18.694;2022-08-11T09:14:27;18.38;;;12.23;;
25824;SDS011;13658;44.534;18.694;2022-08-11T09:17:18;19.67;;;12.30;;
25824;SDS011;13658;44.534;18.694;2022-08-11T09:19:46;15.07;;;12.27;;
25824;SDS011;13658;44.534;18.694;2022-08-11T09:22:19;19.20;;;11.98;;
25824;SDS011;13658;44.534;18.694;2022-08-11T09:25:07;18.40;;;11.68;;
25824;SDS011;13658;44.534;18.694;2022-08-11T09:28:12;19.38;;;11.65;;
25824;SDS011;13658;44.534;18.694;2022-08-11T09:30:44;25.88;;;13.90;;
25824;SDS011;13658;44.534;18.694;2022-08-11T09:33:13;15.60;;;11.57;;
25824;SDS011;13658;44.534;18.694;2022-08-11T09:35:41;15.15;;;9.63;;
25824;SDS011;13658;44.534;18.694;2022-08-11T09:38:11;12.73;;;8.98;;
25824;SDS011;13658;44.534;18.694;2022-08-11T09:40:57;10.65;;;7.97;;
25824;SDS011;13658;44.534;18.694;2022-08-11T09:43:26;10.57;;;8.77;;
25824;SDS011;13658;44.534;18.694;2022-08-11T09:46:12;14.02;;;9.10;;
25824;SDS011;13658;44.534;18.694;2022-08-11T09:48:39;12.25;;;9.45;;
25824;SDS011;13658;44.534;18.694;2022-08-11T09:51:08;12.30;;;9.43;;
25824;SDS011;13658;44.534;18.694;2022-08-11T09:53:39;9.57;;;7.00;;
25824;SDS011;13658;44.534;18.694;2022-08-11T09:56:12;13.32;;;8.43;;
25824;SDS011;13658;44.534;18.694;2022-08-11T09:59:00;8.43;;;6.20;;
25824;SDS011;13658;44.534;18.694;2022-08-11T10:01:37;4.57;;;2.92;;
25824;SDS011;13658;44.534;18.694;2022-08-11T10:06:42;3.50;;;2.08;;
25824;SDS011;13658;44.534;18.694;2022-08-11T10:09:37;5.15;;;2.80;;
25824;SDS011;13658;44.534;18.694;2022-08-11T10:12:23;2.42;;;1.60;;
25824;SDS011;13658;44.534;18.694;2022-08-11T10:14:55;2.20;;;2.00;;
25824;SDS011;13658;44.534;18.694;2022-08-11T10:17:45;4.22;;;3.10;;
25824;SDS011;13658;44.534;18.694;2022-08-11T10:20:34;4.15;;;2.80;;
25824;SDS011;13658;44.534;18.694;2022-08-11T10:23:02;3.28;;;2.50;;
25824;SDS011;13658;44.534;18.694;2022-08-11T10:25:47;5.20;;;4.38;;
25824;SDS011;13658;44.534;18.694;2022-08-11T10:28:32;4.80;;;3.05;;
25824;SDS011;13658;44.534;18.694;2022-08-11T10:31:00;4.93;;;4.43;;
25824;SDS011;13658;44.534;18.694;2022-08-11T10:33:46;3.03;;;2.65;;
25824;SDS011;13658;44.534;18.694;2022-08-11T10:36:28;4.53;;;3.03;;
25824;SDS011;13658;44.534;18.694;2022-08-11T10:38:59;18.70;;;14.13;;
25824;SDS011;13658;44.534;18.694;2022-08-11T10:41:27;2.92;;;2.40;;
25824;SDS011;13658;44.534;18.694;2022-08-11T10:44:12;2.22;;;2.00;;
25824;SDS011;13658;44.534;18.694;2022-08-11T10:46:39;2.25;;;1.88;;
25824;SDS011;13658;44.534;18.694;2022-08-11T10:49:24;2.72;;;1.80;;
25824;SDS011;13658;44.534;18.694;2022-08-11T10:51:52;6.18;;;2.50;;
25824;SDS011;13658;44.534;18.694;2022-08-11T10:54:39;3.85;;;1.77;;
25824;SDS011;13658;44.534;18.694;2022-08-11T10:57:26;4.10;;;1.83;;
25824;SDS011;13658;44.534;18.694;2022-08-11T11:00:12;4.10;;;2.17;;
25824;SDS011;13658;44.534;18.694;2022-08-11T11:02:43;4.95;;;2.70;;
25824;SDS011;13658;44.534;18.694;2022-08-11T11:05:12;12.10;;;2.67;;
25824;SDS011;13658;44.534;18.694;2022-08-11T11:07:51;3.88;;;1.88;;
25824;SDS011;13658;44.534;18.694;2022-08-11T11:10:28;2.17;;;1.80;;
25824;SDS011;13658;44.534;18.694;2022-08-11T11:12:56;4.55;;;2.67;;
25824;SDS011;13658;44.534;18.694;2022-08-11T11:15:43;4.13;;;1.98;;
25824;SDS011;13658;44.534;18.694;2022-08-11T11:18:31;3.17;;;2.25;;
25824;SDS011;13658;44.534;18.694;2022-08-11T11:21:10;2.30;;;2.08;;
25824;SDS011;13658;44.534;18.694;2022-08-11T11:23:53;4.13;;;1.95;;
25824;SDS011;13658;44.534;18.694;2022-08-11T11:27:07;2.58;;;1.58;;
25824;SDS011;13658;44.534;18.694;2022-08-11T11:29:58;3.10;;;1.75;;
25824;SDS011;13658;44.534;18.694;2022-08-11T11:37:45;1.52;;;1.40;;
25824;SDS011;13658;44.534;18.694;2022-08-11T11:40:14;2.67;;;1.73;;
25824;SDS011;13658;44.534;18.694;2022-08-11T11:42:45;3.05;;;1.88;;
25824;SDS011;13658;44.534;18.694;2022-08-11T11:45:20;4.78;;;1.63;;
25824;SDS011;13658;44.534;18.694;2022-08-11T11:47:50;8.57;;;5.03;;
25824;SDS011;13658;44.534;18.694;2022-08-11T11:50:21;3.47;;;1.85;;
25824;SDS011;13658;44.534;18.694;2022-08-11T11:52:54;3.10;;;2.80;;
25824;SDS011;13658;44.534;18.694;2022-08-11T11:55:23;2.20;;;2.00;;
25824;SDS011;13658;44.534;18.694;2022-08-11T11:57:51;5.32;;;2.58;;
25824;SDS011;13658;44.534;18.694;2022-08-11T12:00:38;5.43;;;2.40;;
25824;SDS011;13658;44.534;18.694;2022-08-11T12:03:23;2.67;;;2.13;;
25824;SDS011;13658;44.534;18.694;2022-08-11T12:05:51;3.90;;;2.15;;
25824;SDS011;13658;44.534;18.694;2022-08-11T12:08:18;2.20;;;2.00;;
25824;SDS011;13658;44.534;18.694;2022-08-11T12:10:50;2.63;;;2.28;;
25824;SDS011;13658;44.534;18.694;2022-08-11T12:13:39;4.90;;;2.10;;
25824;SDS011;13658;44.534;18.694;2022-08-11T12:16:07;4.07;;;2.20;;
25824;SDS011;13658;44.534;18.694;2022-08-11T12:18:35;4.10;;;2.70;;
25824;SDS011;13658;44.534;18.694;2022-08-11T12:21:02;4.47;;;2.30;;
25824;SDS011;13658;44.534;18.694;2022-08-11T12:23:30;2.75;;;2.33;;
25824;SDS011;13658;44.534;18.694;2022-08-11T12:26:17;3.30;;;2.72;;
25824;SDS011;13658;44.534;18.694;2022-08-11T12:29:03;3.03;;;2.28;;
25824;SDS011;13658;44.534;18.694;2022-08-11T12:31:31;4.15;;;2.30;;
25824;SDS011;13658;44.534;18.694;2022-08-11T12:34:08;2.45;;;2.25;;
25824;SDS011;13658;44.534;18.694;2022-08-11T12:36:37;3.53;;;2.55;;
25824;SDS011;13658;44.534;18.694;2022-08-11T12:39:09;4.20;;;2.00;;
25824;SDS011;13658;44.534;18.694;2022-08-11T12:41:37;7.65;;;4.75;;
25824;SDS011;13658;44.534;18.694;2022-08-11T12:44:26;8.82;;;3.92;;
25824;SDS011;13658;44.534;18.694;2022-08-11T12:47:13;4.10;;;3.33;;
25824;SDS011;13658;44.534;18.694;2022-08-11T12:49:48;3.75;;;2.45;;
25824;SDS011;13658;44.534;18.694;2022-08-11T12:52:44;4.95;;;3.08;;
25824;SDS011;13658;44.534;18.694;2022-08-11T12:55:15;3.70;;;2.53;;
25824;SDS011;13658;44.534;18.694;2022-08-11T12:58:04;2.50;;;2.22;;
25824;SDS011;13658;44.534;18.694;2022-08-11T13:00:42;4.53;;;2.30;;
25824;SDS011;13658;44.534;18.694;2022-08-11T13:03:28;5.32;;;2.80;;
25824;SDS011;13658;44.534;18.694;2022-08-11T13:06:14;10.68;;;7.10;;
25824;SDS011;13658;44.534;18.694;2022-08-11T13:08:40;19.77;;;12.50;;
25824;SDS011;13658;44.534;18.694;2022-08-11T13:11:08;15.10;;;9.52;;
25824;SDS011;13658;44.534;18.694;2022-08-11T13:13:53;3.40;;;2.60;;
25824;SDS011;13658;44.534;18.694;2022-08-11T13:16:28;2.30;;;2.10;;
25824;SDS011;13658;44.534;18.694;2022-08-11T13:18:56;6.78;;;3.45;;
25824;SDS011;13658;44.534;18.694;2022-08-11T13:21:25;4.72;;;3.70;;
25824;SDS011;13658;44.534;18.694;2022-08-11T13:23:52;7.20;;;3.72;;
25824;SDS011;13658;44.534;18.694;2022-08-11T13:26:23;5.60;;;2.92;;
25824;SDS011;13658;44.534;18.694;2022-08-11T13:28:50;4.55;;;3.08;;
25824;SDS011;13658;44.534;18.694;2022-08-11T13:31:16;3.40;;;2.40;;
25824;SDS011;13658;44.534;18.694;2022-08-11T13:33:49;3.15;;;2.47;;
25824;SDS011;13658;44.534;18.694;2022-08-11T13:36:20;3.20;;;2.90;;
25824;SDS011;13658;44.534;18.694;2022-08-11T13:38:48;4.47;;;2.80;;
25824;SDS011;13658;44.534;18.694;2022-08-11T13:41:16;3.63;;;3.30;;
25824;SDS011;13658;44.534;18.694;2022-08-11T13:44:01;3.72;;;2.67;;
25824;SDS011;13658;44.534;18.694;2022-08-11T13:46:28;5.22;;;2.80;;
25824;SDS011;13658;44.534;18.694;2022-08-11T13:48:55;4.55;;;3.30;;
25824;SDS011;13658;44.534;18.694;2022-08-11T13:51:22;3.78;;;2.75;;
25824;SDS011;13658;44.534;18.694;2022-08-11T13:53:59;4.25;;;2.50;;
25824;SDS011;13658;44.534;18.694;2022-08-11T13:56:26;3.13;;;2.30;;
25824;SDS011;13658;44.534;18.694;2022-08-11T13:58:54;2.95;;;2.33;;
25824;SDS011;13658;44.534;18.694;2022-08-11T14:01:22;5.53;;;2.78;;
25824;SDS011;13658;44.534;18.694;2022-08-11T14:03:51;2.53;;;2.33;;
25824;SDS011;13658;44.534;18.694;2022-08-11T14:06:18;5.55;;;3.30;;
25824;SDS011;13658;44.534;18.694;2022-08-11T14:08:46;3.55;;;2.50;;
25824;SDS011;13658;44.534;18.694;2022-08-11T14:11:15;3.92;;;3.35;;
25824;SDS011;13658;44.534;18.694;2022-08-11T14:14:00;2.78;;;2.58;;
25824;SDS011;13658;44.534;18.694;2022-08-11T14:16:29;3.40;;;2.58;;
25824;SDS011;13658;44.534;18.694;2022-08-11T14:19:00;6.38;;;2.85;;
25824;SDS011;13658;44.534;18.694;2022-08-11T14:21:31;4.03;;;2.78;;
25824;SDS011;13658;44.534;18.694;2022-08-11T14:24:18;3.08;;;2.75;;
25824;SDS011;13658;44.534;18.694;2022-08-11T14:26:46;4.70;;;2.53;;
25824;SDS011;13658;44.534;18.694;2022-08-11T14:29:22;5.03;;;3.00;;
25824;SDS011;13658;44.534;18.694;2022-08-11T14:31:55;3.83;;;2.53;;
25824;SDS011;13658;44.534;18.694;2022-08-11T14:34:32;4.38;;;3.00;;
25824;SDS011;13658;44.534;18.694;2022-08-11T14:37:20;2.50;;;2.30;;
25824;SDS011;13658;44.534;18.694;2022-08-11T14:39:53;2.63;;;2.40;;
25824;SDS011;13658;44.534;18.694;2022-08-11T14:42:22;2.40;;;2.20;;
25824;SDS011;13658;44.534;18.694;2022-08-11T14:45:11;2.97;;;2.67;;
25824;SDS011;13658;44.534;18.694;2022-08-11T14:47:59;2.60;;;1.98;;
25824;SDS011;13658;44.534;18.694;2022-08-11T14:50:30;4.60;;;2.05;;
25824;SDS011;13658;44.534;18.694;2022-08-11T14:52:59;3.10;;;2.03;;
25824;SDS011;13658;44.534;18.694;2022-08-11T14:55:28;5.55;;;2.40;;
25824;SDS011;13658;44.534;18.694;2022-08-11T14:58:18;3.20;;;2.90;;
25824;SDS011;13658;44.534;18.694;2022-08-11T15:00:45;4.10;;;2.05;;
25824;SDS011;13658;44.534;18.694;2022-08-11T15:03:14;3.10;;;2.33;;
25824;SDS011;13658;44.534;18.694;2022-08-11T15:05:43;2.67;;;1.95;;
25824;SDS011;13658;44.534;18.694;2022-08-11T15:08:19;2.70;;;2.10;;
25824;SDS011;13658;44.534;18.694;2022-08-11T15:11:08;2.25;;;2.05;;
25824;SDS011;13658;44.534;18.694;2022-08-11T15:13:55;1.88;;;1.70;;
25824;SDS011;13658;44.534;18.694;2022-08-11T15:16:25;2.95;;;2.08;;
25824;SDS011;13658;44.534;18.694;2022-08-11T15:19:11;2.60;;;2.40;;
25824;SDS011;13658;44.534;18.694;2022-08-11T15:21:38;2.50;;;2.08;;
25824;SDS011;13658;44.534;18.694;2022-08-11T15:24:23;4.32;;;2.10;;
25824;SDS011;13658;44.534;18.694;2022-08-11T15:26:49;2.30;;;2.10;;
25824;SDS011;13658;44.534;18.694;2022-08-11T15:29:36;3.95;;;2.50;;
25824;SDS011;13658;44.534;18.694;2022-08-11T15:32:24;2.80;;;2.35;;
25824;SDS011;13658;44.534;18.694;2022-08-11T15:35:10;2.88;;;2.22;;
25824;SDS011;13658;44.534;18.694;2022-08-11T15:37:57;3.58;;;2.60;;
25824;SDS011;13658;44.534;18.694;2022-08-11T15:40:28;2.50;;;1.92;;
25824;SDS011;13658;44.534;18.694;2022-08-11T15:43:23;3.28;;;2.10;;
25824;SDS011;13658;44.534;18.694;2022-08-11T15:49:03;2.70;;;2.28;;
25824;SDS011;13658;44.534;18.694;2022-08-11T15:51:36;2.47;;;2.22;;
25824;SDS011;13658;44.534;18.694;2022-08-11T15:54:22;2.92;;;2.03;;
25824;SDS011;13658;44.534;18.694;2022-08-11T15:56:52;3.25;;;2.40;;
25824;SDS011;13658;44.534;18.694;2022-08-11T15:59:19;3.05;;;2.30;;
25824;SDS011;13658;44.534;18.694;2022-08-11T16:02:06;3.30;;;2.17;;
25824;SDS011;13658;44.534;18.694;2022-08-11T16:04:57;4.82;;;2.50;;
25824;SDS011;13658;44.534;18.694;2022-08-11T16:07:26;5.13;;;2.60;;
25824;SDS011;13658;44.534;18.694;2022-08-11T16:12:38;7.15;;;2.97;;
25824;SDS011;13658;44.534;18.694;2022-08-11T16:15:33;2.75;;;2.10;;
25824;SDS011;13658;44.534;18.694;2022-08-11T16:18:21;2.63;;;2.42;;
25824;SDS011;13658;44.534;18.694;2022-08-11T16:21:12;4.07;;;2.17;;
25824;SDS011;13658;44.534;18.694;2022-08-11T16:23:59;3.40;;;2.40;;
25824;SDS011;13658;44.534;18.694;2022-08-11T16:26:27;3.50;;;2.53;;
25824;SDS011;13658;44.534;18.694;2022-08-11T16:28:56;2.17;;;1.98;;
25824;SDS011;13658;44.534;18.694;2022-08-11T16:31:24;4.90;;;2.10;;
25824;SDS011;13658;44.534;18.694;2022-08-11T16:33:53;5.75;;;2.50;;
25824;SDS011;13658;44.534;18.694;2022-08-11T16:36:22;2.38;;;2.17;;
25824;SDS011;13658;44.534;18.694;2022-08-11T16:39:08;2.60;;;2.40;;
25824;SDS011;13658;44.534;18.694;2022-08-11T16:41:36;2.20;;;2.00;;
25824;SDS011;13658;44.534;18.694;2022-08-11T16:44:23;3.47;;;2.45;;
25824;SDS011;13658;44.534;18.694;2022-08-11T16:47:11;3.00;;;2.30;;
25824;SDS011;13658;44.534;18.694;2022-08-11T16:49:44;4.40;;;2.65;;
25824;SDS011;13658;44.534;18.694;2022-08-11T16:52:13;6.00;;;2.42;;
25824;SDS011;13658;44.534;18.694;2022-08-11T16:54:41;3.95;;;2.33;;
25824;SDS011;13658;44.534;18.694;2022-08-11T16:57:08;2.83;;;2.35;;
25824;SDS011;13658;44.534;18.694;2022-08-11T17:00:20;4.97;;;2.50;;
25824;SDS011;13658;44.534;18.694;2022-08-11T17:02:50;4.47;;;2.25;;
25824;SDS011;13658;44.534;18.694;2022-08-11T17:05:37;4.95;;;2.35;;
25824;SDS011;13658;44.534;18.694;2022-08-11T17:08:31;5.90;;;2.70;;
25824;SDS011;13658;44.534;18.694;2022-08-11T17:11:18;3.65;;;2.08;;
25824;SDS011;13658;44.534;18.694;2022-08-11T17:14:10;6.00;;;2.17;;
25824;SDS011;13658;44.534;18.694;2022-08-11T17:16:45;3.58;;;2.35;;
25824;SDS011;13658;44.534;18.694;2022-08-11T17:19:26;3.92;;;2.10;;
25824;SDS011;13658;44.534;18.694;2022-08-11T17:21:57;3.25;;;2.35;;
25824;SDS011;13658;44.534;18.694;2022-08-11T17:24:43;5.55;;;2.97;;
25824;SDS011;13658;44.534;18.694;2022-08-11T17:27:11;6.00;;;4.07;;
25824;SDS011;13658;44.534;18.694;2022-08-11T17:29:45;5.55;;;3.30;;
25824;SDS011;13658;44.534;18.694;2022-08-11T17:32:17;6.13;;;3.08;;
25824;SDS011;13658;44.534;18.694;2022-08-11T17:35:08;3.05;;;2.65;;
25824;SDS011;13658;44.534;18.694;2022-08-11T17:38:09;3.20;;;2.50;;
25824;SDS011;13658;44.534;18.694;2022-08-11T17:40:50;3.42;;;2.40;;
25824;SDS011;13658;44.534;18.694;2022-08-11T17:43:37;5.57;;;3.15;;
25824;SDS011;13658;44.534;18.694;2022-08-11T17:46:23;4.90;;;2.72;;
25824;SDS011;13658;44.534;18.694;2022-08-11T17:49:10;7.30;;;3.28;;
25824;SDS011;13658;44.534;18.694;2022-08-11T17:51:39;4.07;;;3.05;;
25824;SDS011;13658;44.534;18.694;2022-08-11T17:54:27;4.45;;;3.00;;
25824;SDS011;13658;44.534;18.694;2022-08-11T17:57:14;5.18;;;3.10;;
25824;SDS011;13658;44.534;18.694;2022-08-11T18:00:00;5.85;;;3.30;;
25824;SDS011;13658;44.534;18.694;2022-08-11T18:02:42;6.80;;;3.25;;
25824;SDS011;13658;44.534;18.694;2022-08-11T18:05:29;6.82;;;3.58;;
25824;SDS011;13658;44.534;18.694;2022-08-11T18:08:04;5.50;;;3.95;;
25824;SDS011;13658;44.534;18.694;2022-08-11T18:10:51;5.63;;;4.03;;
25824;SDS011;13658;44.534;18.694;2022-08-11T18:13:42;7.32;;;4.00;;
25824;SDS011;13658;44.534;18.694;2022-08-11T18:16:30;6.35;;;4.10;;
25824;SDS011;13658;44.534;18.694;2022-08-11T18:19:15;8.40;;;4.63;;
25824;SDS011;13658;44.534;18.694;2022-08-11T18:22:12;9.02;;;5.38;;
25824;SDS011;13658;44.534;18.694;2022-08-11T18:25:14;9.90;;;5.13;;
25824;SDS011;13658;44.534;18.694;2022-08-11T18:28:04;8.73;;;4.60;;
25824;SDS011;13658;44.534;18.694;2022-08-11T18:30:52;9.43;;;5.60;;
25824;SDS011;13658;44.534;18.694;2022-08-11T18:33:43;10.40;;;5.80;;
25824;SDS011;13658;44.534;18.694;2022-08-11T18:37:20;8.88;;;5.25;;
25824;SDS011;13658;44.534;18.694;2022-08-11T18:39:48;8.93;;;5.57;;
25824;SDS011;13658;44.534;18.694;2022-08-11T18:42:39;9.90;;;5.60;;
25824;SDS011;13658;44.534;18.694;2022-08-11T18:45:26;13.75;;;6.50;;
25824;SDS011;13658;44.534;18.694;2022-08-11T18:48:12;10.98;;;5.60;;
25824;SDS011;13658;44.534;18.694;2022-08-11T18:51:00;10.10;;;5.57;;
25824;SDS011;13658;44.534;18.694;2022-08-11T18:53:49;10.02;;;5.13;;
25824;SDS011;13658;44.534;18.694;2022-08-11T18:56:37;9.98;;;4.75;;
25824;SDS011;13658;44.534;18.694;2022-08-11T18:59:23;10.88;;;5.10;;
25824;SDS011;13658;44.534;18.694;2022-08-11T19:02:10;9.77;;;5.10;;
25824;SDS011;13658;44.534;18.694;2022-08-11T19:04:58;9.70;;;5.07;;
25824;SDS011;13658;44.534;18.694;2022-08-11T19:07:44;7.93;;;4.55;;
25824;SDS011;13658;44.534;18.694;2022-08-11T19:10:31;11.05;;;5.80;;
25824;SDS011;13658;44.534;18.694;2022-08-11T19:13:17;11.50;;;5.10;;
25824;SDS011;13658;44.534;18.694;2022-08-11T19:16:04;11.13;;;5.43;;
25824;SDS011;13658;44.534;18.694;2022-08-11T19:18:50;9.32;;;5.75;;
25824;SDS011;13658;44.534;18.694;2022-08-11T19:21:37;12.23;;;5.00;;
25824;SDS011;13658;44.534;18.694;2022-08-11T19:24:23;9.70;;;4.75;;
25824;SDS011;13658;44.534;18.694;2022-08-11T19:27:09;11.15;;;4.75;;
25824;SDS011;13658;44.534;18.694;2022-08-11T19:29:55;8.45;;;4.68;;
25824;SDS011;13658;44.534;18.694;2022-08-11T19:32:40;9.13;;;5.00;;